Time,TemperatureF,DewpointF,PressureIn,WindDirection,WindDirectionDegrees,WindSpeedMPH,WindSpeedGustMPH,Humidity,HourlyPrecipIn,Conditions,Clouds,dailyrainin,SoftwareType,DateUTC
2013-02-20 00:01:00,35.4,31.4,28.96,NNE,22,1.2,0.0,85,0.00,RA,,0.00,WeatherDisplay:10.37,2013-02-20 08:01:00,
2013-02-20 00:06:00,35.2,31.2,28.96,NW,315,0.0,0.0,85,0.00,RA,,0.00,WeatherDisplay:10.37,2013-02-20 08:06:00,
2013-02-20 00:11:00,35.1,31.0,28.96,WNW,292,1.2,1.2,85,0.00,CLR,,0.00,WeatherDisplay:10.37,2013-02-20 08:11:00,
2013-02-20 00:16:00,34.9,31.1,28.96,WNW,292,1.2,0.0,86,0.00,CLR,,0.00,WeatherDisplay:10.37,2013-02-20 08:16:00,
2013-02-20 00:21:00,34.9,31.1,28.96,WNW,292,0.0,0.0,86,0.00,CLR,,0.00,WeatherDisplay:10.37,2013-02-20 08:21:00,
2013-02-20 00:26:00,34.9,31.1,28.96,West,270,1.2,1.2,86,0.00,CLR,,0.00,WeatherDisplay:10.37,2013-02-20 08:26:00,
2013-02-20 00:31:00,34.9,31.7,28.96,West,270,3.5,3.5,88,0.00,CLR,,0.00,WeatherDisplay:10.37,2013-02-20 08:31:00,
2013-02-20 00:36:00,34.9,31.4,28.96,NNW,338,0.2,0.2,87,0.00,CLR,,0.00,WeatherDisplay:10.37,2013-02-20 08:36:00,
2013-02-20 00:41:00,34.9,31.4,28.96,East,90,1.2,1.2,87,0.00,CLR,,0.00,WeatherDisplay:10.37,2013-02-20 08:41:00,
2013-02-20 00:46:00,34.9,31.4,28.97,SW,225,1.2,1.2,87,0.00,CLR,,0.00,WeatherDisplay:10.37,2013-02-20 08:46:00,
2013-02-20 00:51:00,34.9,31.1,28.97,East,90,0.2,0.2,86,0.00,CLR,,0.00,WeatherDisplay:10.37,2013-02-20 08:51:00,
2013-02-20 00:56:00,34.9,31.1,28.97,WNW,292,0.0,0.0,86,0.00,CLR,,0.00,WeatherDisplay:10.37,2013-02-20 08:56:00,
2013-02-20 01:01:00,34.5,30.8,28.97,West,270,0.5,0.5,86,0.00,CLR,,0.00,WeatherDisplay:10.37,2013-02-20 09:01:00,
2013-02-20 01:06:00,34.5,31.0,28.97,West,270,1.2,1.2,87,0.00,CLR,,0.00,WeatherDisplay:10.37,2013-02-20 09:06:00,
2013-02-20 01:11:00,34.5,31.0,28.97,West,270,1.2,1.2,87,0.00,CLR,,0.00,WeatherDisplay:10.37,2013-02-20 09:11:00,
2013-02-20 01:16:00,34.5,31.0,28.97,NNW,338,0.0,0.0,87,0.00,CLR,,0.00,WeatherDisplay:10.37,2013-02-20 09:16:00,
2013-02-20 01:21:00,34.7,31.2,28.97,NW,315,0.0,0.0,87,0.00,CLR,,0.00,WeatherDisplay:10.37,2013-02-20 09:21:00,
2013-02-20 01:26:00,34.5,31.0,28.97,NNE,22,0.0,0.7,87,0.00,CLR,,0.00,WeatherDisplay:10.37,2013-02-20 09:26:00,
2013-02-20 01:31:00,34.5,31.0,28.97,NNW,338,0.2,0.2,87,0.00,CLR,,0.00,WeatherDisplay:10.37,2013-02-20 09:31:00,
2013-02-20 01:36:00,34.5,31.0,28.97,NW,315,0.0,0.0,87,0.00,CLR,,0.00,WeatherDisplay:10.37,2013-02-20 09:36:00,
2013-02-20 01:41:00,34.3,30.9,28.97,NE,45,0.0,0.0,87,0.00,CLR,,0.00,WeatherDisplay:10.37,2013-02-20 09:41:00,
2013-02-20 01:46:00,34.2,30.7,28.97,NE,45,0.0,0.0,87,0.00,CLR,,0.00,WeatherDisplay:10.37,2013-02-20 09:46:00,
2013-02-20 01:51:00,34.2,30.7,28.98,North,0,0.0,0.0,87,0.00,CLR,,0.00,WeatherDisplay:10.37,2013-02-20 09:51:00,
2013-02-20 01:56:00,34.0,30.5,28.98,NNE,22,0.0,0.0,87,0.00,CLR,,0.00,WeatherDisplay:10.37,2013-02-20 09:56:00,
2013-02-20 02:01:00,33.8,30.3,28.98,NNE,22,0.0,0.0,87,0.00,CLR,,0.00,WeatherDisplay:10.37,2013-02-20 10:01:00,
2013-02-20 02:06:00,33.8,30.6,28.98,NNE,22,1.2,1.2,88,0.00,CLR,,0.00,WeatherDisplay:10.37,2013-02-20 10:06:00,
2013-02-20 02:11:00,34.0,30.8,28.98,NNE,22,0.0,0.0,88,0.00,CLR,,0.00,WeatherDisplay:10.37,2013-02-20 10:11:00,
2013-02-20 02:16:00,33.8,30.3,28.98,NNE,22,0.0,0.0,87,0.00,CLR,,0.00,WeatherDisplay:10.37,2013-02-20 10:16:00,
2013-02-20 02:21:00,33.8,30.6,28.99,SW,225,1.2,0.0,88,0.00,CLR,,0.00,WeatherDisplay:10.37,2013-02-20 10:21:00,
2013-02-20 02:26:00,34.0,30.8,28.99,ENE,68,1.2,1.2,88,0.00,CLR,,0.00,WeatherDisplay:10.37,2013-02-20 10:26:00,
2013-02-20 02:31:00,34.2,31.0,28.99,SW,225,0.5,0.5,88,0.00,CLR,,0.00,WeatherDisplay:10.37,2013-02-20 10:31:00,
2013-02-20 02:36:00,34.5,31.6,28.99,East,90,1.2,0.0,89,0.00,CLR,,0.00,WeatherDisplay:10.37,2013-02-20 10:36:00,
2013-02-20 02:41:00,34.9,32.0,29.00,East,90,1.2,0.0,89,0.00,CLR,,0.00,WeatherDisplay:10.37,2013-02-20 10:41:00,
2013-02-20 02:46:00,35.2,32.3,29.00,NE,45,0.5,0.5,89,0.00,CLR,,0.00,WeatherDisplay:10.37,2013-02-20 10:46:00,
2013-02-20 02:51:00,35.4,32.5,29.00,NW,315,0.0,0.0,89,0.00,CLR,,0.00,WeatherDisplay:10.37,2013-02-20 10:51:00,
2013-02-20 02:56:00,35.4,32.5,29.00,SE,135,0.0,0.0,89,0.00,CLR,,0.00,WeatherDisplay:10.37,2013-02-20 10:56:00,
2013-02-20 03:01:00,35.4,32.5,29.00,SSW,202,0.2,0.2,89,0.00,CLR,,0.00,WeatherDisplay:10.37,2013-02-20 11:01:00,
2013-02-20 03:06:00,35.4,32.5,29.00,SW,225,1.4,1.4,89,0.00,CLR,,0.00,WeatherDisplay:10.37,2013-02-20 11:06:00,
2013-02-20 03:11:00,35.4,32.5,29.00,South,180,0.0,1.4,89,0.00,CLR,,0.00,WeatherDisplay:10.37,2013-02-20 11:11:00,
2013-02-20 03:16:00,35.4,32.5,29.00,ENE,68,0.5,0.5,89,0.00,CLR,,0.00,WeatherDisplay:10.37,2013-02-20 11:16:00,
2013-02-20 03:21:00,35.6,32.7,29.00,WNW,292,0.0,0.0,89,0.00,CLR,,0.00,WeatherDisplay:10.37,2013-02-20 11:21:00,
2013-02-20 03:26:00,35.6,32.7,29.00,ESE,112,0.2,0.2,89,0.00,CLR,,0.00,WeatherDisplay:10.37,2013-02-20 11:26:00,
2013-02-20 03:31:00,35.6,32.7,29.00,WNW,292,1.2,0.0,89,0.00,CLR,,0.00,WeatherDisplay:10.37,2013-02-20 11:31:00,
2013-02-20 03:36:00,35.6,32.7,29.00,NNW,338,0.2,0.2,89,0.00,CLR,,0.00,WeatherDisplay:10.37,2013-02-20 11:36:00,
2013-02-20 03:41:00,35.6,32.7,29.00,NNW,338,0.0,0.0,89,0.00,CLR,,0.00,WeatherDisplay:10.37,2013-02-20 11:41:00,
2013-02-20 03:46:00,35.6,32.7,29.00,ENE,68,0.0,0.0,89,0.00,CLR,,0.00,WeatherDisplay:10.37,2013-02-20 11:46:00,
2013-02-20 03:51:00,35.6,32.7,29.00,WSW,248,1.2,1.2,89,0.00,CLR,,0.00,WeatherDisplay:10.37,2013-02-20 11:51:00,
2013-02-20 03:56:00,35.6,32.7,29.00,NE,45,0.0,0.0,89,0.00,CLR,,0.00,WeatherDisplay:10.37,2013-02-20 11:56:00,
2013-02-20 04:01:00,35.6,33.0,29.00,WSW,248,1.2,0.0,90,0.00,CLR,,0.00,WeatherDisplay:10.37,2013-02-20 12:01:00,
2013-02-20 04:06:00,35.6,32.7,29.00,SSE,158,0.5,0.5,89,0.00,CLR,,0.00,WeatherDisplay:10.37,2013-02-20 12:06:00,
2013-02-20 04:11:00,35.4,32.5,29.00,WNW,292,0.0,0.0,89,0.00,CLR,,0.00,WeatherDisplay:10.37,2013-02-20 12:11:00,
2013-02-20 04:17:00,35.2,32.3,29.00,NNW,338,0.0,0.0,89,0.00,CLR,,0.00,WeatherDisplay:10.37,2013-02-20 12:17:00,
2013-02-20 04:22:00,35.2,32.3,29.00,NW,315,0.0,0.0,89,0.00,CLR,,0.00,WeatherDisplay:10.37,2013-02-20 12:22:00,
2013-02-20 04:27:00,35.1,32.1,29.00,NW,315,0.0,0.0,89,0.00,CLR,,0.00,WeatherDisplay:10.37,2013-02-20 12:27:00,
2013-02-20 04:32:00,34.9,32.0,29.00,WNW,292,0.0,0.0,89,0.00,CLR,,0.00,WeatherDisplay:10.37,2013-02-20 12:32:00,
2013-02-20 04:37:00,34.9,32.0,29.00,NNW,338,0.0,0.0,89,0.00,CLR,,0.00,WeatherDisplay:10.37,2013-02-20 12:37:00,
2013-02-20 04:42:00,34.7,31.8,29.01,NNW,338,0.0,0.0,89,0.00,CLR,,0.00,WeatherDisplay:10.37,2013-02-20 12:42:00,
2013-02-20 04:47:00,34.7,31.8,29.01,SW,225,1.2,1.2,89,0.00,CLR,,0.00,WeatherDisplay:10.37,2013-02-20 12:47:00,
2013-02-20 04:52:00,34.5,31.6,29.01,WSW,248,0.0,0.0,89,0.00,CLR,,0.00,WeatherDisplay:10.37,2013-02-20 12:52:00,
2013-02-20 04:57:00,34.5,31.6,29.01,North,0,0.5,0.5,89,0.00,CLR,,0.00,WeatherDisplay:10.37,2013-02-20 12:57:00,
2013-02-20 05:02:00,34.5,31.9,29.01,ENE,68,1.2,1.2,90,0.00,CLR,,0.00,WeatherDisplay:10.37,2013-02-20 13:02:00,
2013-02-20 05:07:00,34.5,31.9,29.01,ENE,68,1.2,1.2,90,0.00,CLR,,0.00,WeatherDisplay:10.37,2013-02-20 13:07:00,
2013-02-20 05:12:00,34.5,31.9,29.01,East,90,1.2,1.2,90,0.00,CLR,,0.00,WeatherDisplay:10.37,2013-02-20 13:12:00,
2013-02-20 05:17:00,34.5,31.9,29.02,ENE,68,1.2,1.2,90,0.00,CLR,,0.00,WeatherDisplay:10.37,2013-02-20 13:17:00,
2013-02-20 05:22:00,34.5,31.9,29.01,ENE,68,1.2,1.2,90,0.00,CLR,,0.00,WeatherDisplay:10.37,2013-02-20 13:22:00,
2013-02-20 05:27:00,34.7,32.1,29.02,ESE,112,1.2,1.2,90,0.00,CLR,,0.00,WeatherDisplay:10.37,2013-02-20 13:27:00,
2013-02-20 05:32:00,34.9,32.2,29.02,ESE,112,1.2,1.2,90,0.00,CLR,,0.00,WeatherDisplay:10.37,2013-02-20 13:32:00,
2013-02-20 05:37:00,34.9,32.2,29.02,SE,135,1.2,1.2,90,0.00,CLR,,0.00,WeatherDisplay:10.37,2013-02-20 13:37:00,
2013-02-20 05:42:00,34.9,32.5,29.02,East,90,2.3,2.3,91,0.00,CLR,,0.00,WeatherDisplay:10.37,2013-02-20 13:42:00,
2013-02-20 05:47:00,34.9,32.5,29.02,ENE,68,1.2,1.2,91,0.00,CLR,,0.00,WeatherDisplay:10.37,2013-02-20 13:47:00,
2013-02-20 05:52:00,34.9,32.5,29.02,ENE,68,0.0,0.0,91,0.00,CLR,,0.00,WeatherDisplay:10.37,2013-02-20 13:52:00,
2013-02-20 05:57:00,35.1,32.7,29.02,ENE,68,0.2,0.2,91,0.00,CLR,,0.00,WeatherDisplay:10.37,2013-02-20 13:57:00,
2013-02-20 06:02:00,35.1,32.7,29.02,NE,45,1.2,1.2,91,0.00,CLR,,0.00,WeatherDisplay:10.37,2013-02-20 14:02:00,
2013-02-20 06:07:00,35.2,32.9,29.02,NE,45,0.0,0.0,91,0.00,CLR,,0.00,WeatherDisplay:10.37,2013-02-20 14:07:00,
2013-02-20 06:12:00,35.2,32.9,29.02,NE,45,0.0,0.0,91,0.00,CLR,,0.00,WeatherDisplay:10.37,2013-02-20 14:12:00,
2013-02-20 06:17:00,35.2,32.6,29.02,NE,45,0.0,0.0,90,0.00,CLR,,0.00,WeatherDisplay:10.37,2013-02-20 14:17:00,
2013-02-20 06:22:00,35.1,32.4,29.02,ESE,112,0.9,0.9,90,0.00,CLR,,0.00,WeatherDisplay:10.37,2013-02-20 14:22:00,
2013-02-20 06:27:00,34.9,32.2,29.02,South,180,0.0,0.0,90,0.00,CLR,,0.00,WeatherDisplay:10.37,2013-02-20 14:27:00,
2013-02-20 06:32:00,34.7,32.1,29.03,WSW,248,0.0,0.0,90,0.00,CLR,,0.00,WeatherDisplay:10.37,2013-02-20 14:32:00,
2013-02-20 06:37:00,34.7,32.1,29.03,North,0,0.0,0.0,90,0.00,CLR,,0.00,WeatherDisplay:10.37,2013-02-20 14:37:00,
2013-02-20 06:42:00,34.7,32.1,29.03,NNE,22,0.2,0.2,90,0.00,CLR,,0.00,WeatherDisplay:10.37,2013-02-20 14:42:00,
2013-02-20 06:47:00,34.9,32.5,29.03,NE,45,1.2,1.2,91,0.00,CLR,,0.00,WeatherDisplay:10.37,2013-02-20 14:47:00,
2013-02-20 06:52:00,35.1,32.7,29.02,East,90,1.2,0.0,91,0.00,CLR,,0.00,WeatherDisplay:10.37,2013-02-20 14:52:00,
2013-02-20 06:57:00,35.2,32.9,29.02,ENE,68,1.2,1.2,91,0.00,CLR,,0.00,WeatherDisplay:10.37,2013-02-20 14:57:00,
2013-02-20 07:02:00,35.4,33.1,29.02,East,90,1.2,1.2,91,0.00,CLR,,0.00,WeatherDisplay:10.37,2013-02-20 15:02:00,
2013-02-20 07:07:00,35.6,33.5,29.02,NE,45,2.3,2.3,92,0.00,CLR,,0.00,WeatherDisplay:10.37,2013-02-20 15:07:00,
2013-02-20 07:12:00,35.4,33.1,29.03,East,90,2.3,2.4,91,0.00,CLR,,0.00,WeatherDisplay:10.37,2013-02-20 15:12:00,
2013-02-20 07:17:00,35.4,33.1,29.03,East,90,3.3,3.3,91,0.00,CLR,,0.00,WeatherDisplay:10.37,2013-02-20 15:17:00,
2013-02-20 07:22:00,35.2,32.9,29.03,ESE,112,2.3,2.3,91,0.00,CLR,,0.00,WeatherDisplay:10.37,2013-02-20 15:22:00,
2013-02-20 07:27:00,35.2,32.9,29.03,ESE,112,2.4,2.4,91,0.00,CLR,,0.00,WeatherDisplay:10.37,2013-02-20 15:27:00,
2013-02-20 07:32:00,35.4,32.8,29.03,SE,135,1.2,1.2,90,0.00,CLR,,0.00,WeatherDisplay:10.37,2013-02-20 15:32:00,
2013-02-20 07:37:00,35.2,32.9,29.03,ESE,112,3.5,3.5,91,0.00,CLR,,0.00,WeatherDisplay:10.37,2013-02-20 15:37:00,
2013-02-20 07:42:00,35.4,33.1,29.04,SE,135,3.5,3.5,91,0.00,CLR,,0.00,WeatherDisplay:10.37,2013-02-20 15:42:00,
2013-02-20 07:47:00,35.6,33.2,29.03,ESE,112,3.5,3.5,91,0.00,CLR,,0.00,WeatherDisplay:10.37,2013-02-20 15:47:00,
2013-02-20 07:52:00,35.6,33.2,29.03,ESE,112,3.5,3.5,91,0.00,CLR,,0.00,WeatherDisplay:10.37,2013-02-20 15:52:00,
2013-02-20 07:57:00,36.0,33.6,29.03,East,90,5.8,5.8,91,0.00,CLR,,0.00,WeatherDisplay:10.37,2013-02-20 15:57:00,
2013-02-20 08:02:00,36.1,33.8,29.03,East,90,3.5,3.5,91,0.00,CLR,,0.00,WeatherDisplay:10.37,2013-02-20 16:02:00,
2013-02-20 08:07:00,36.3,33.9,29.03,ESE,112,3.3,3.3,91,0.00,CLR,,0.00,WeatherDisplay:10.37,2013-02-20 16:07:00,
2013-02-20 08:12:00,36.3,33.7,29.03,ESE,112,2.3,2.3,90,0.00,CLR,,0.00,WeatherDisplay:10.37,2013-02-20 16:12:00,
2013-02-20 08:17:00,36.5,34.1,29.03,ESE,112,2.4,2.4,91,0.00,CLR,,0.00,WeatherDisplay:10.37,2013-02-20 16:17:00,
2013-02-20 08:22:00,36.7,34.0,29.03,East,90,3.5,3.5,90,0.00,CLR,,0.00,WeatherDisplay:10.37,2013-02-20 16:22:00,
2013-02-20 08:27:00,36.9,34.2,29.03,East,90,4.6,4.6,90,0.00,CLR,,0.00,WeatherDisplay:10.37,2013-02-20 16:27:00,
2013-02-20 08:32:00,37.0,34.4,29.03,ESE,112,3.5,3.5,90,0.00,CLR,,0.00,WeatherDisplay:10.37,2013-02-20 16:32:00,
2013-02-20 08:37:00,37.2,34.6,29.03,East,90,2.3,2.4,90,0.00,CLR,,0.00,WeatherDisplay:10.37,2013-02-20 16:37:00,
2013-02-20 08:42:00,37.6,34.9,29.03,ESE,112,3.5,3.5,90,0.00,CLR,,0.00,WeatherDisplay:10.37,2013-02-20 16:42:00,
2013-02-20 08:47:00,37.8,35.1,29.03,ENE,68,3.5,3.5,90,0.00,CLR,,0.00,WeatherDisplay:10.37,2013-02-20 16:47:00,
2013-02-20 08:52:00,38.1,35.4,29.03,East,90,2.3,2.3,90,0.00,CLR,,0.00,WeatherDisplay:10.37,2013-02-20 16:52:00,
2013-02-20 08:57:00,38.5,35.8,29.03,ESE,112,4.6,4.6,90,0.00,CLR,,0.00,WeatherDisplay:10.37,2013-02-20 16:57:00,
2013-02-20 09:02:00,38.7,35.7,29.03,ESE,112,3.5,3.5,89,0.00,CLR,,0.00,WeatherDisplay:10.37,2013-02-20 17:02:00,
2013-02-20 09:07:00,38.8,35.9,29.03,ESE,112,3.5,3.5,89,0.00,CLR,,0.00,WeatherDisplay:10.37,2013-02-20 17:07:00,
2013-02-20 09:12:00,39.2,35.9,29.03,SSE,158,4.6,4.6,88,0.00,CLR,,0.00,WeatherDisplay:10.37,2013-02-20 17:12:00,
2013-02-20 09:17:00,39.2,35.7,29.03,SE,135,4.7,4.7,87,0.00,CLR,,0.00,WeatherDisplay:10.37,2013-02-20 17:17:00,
2013-02-20 09:22:00,39.4,35.8,29.03,ESE,112,5.8,5.8,87,0.00,CLR,,0.00,WeatherDisplay:10.37,2013-02-20 17:22:00,
2013-02-20 09:27:00,39.6,35.7,29.03,ESE,112,6.9,6.9,86,0.00,CLR,,0.00,WeatherDisplay:10.37,2013-02-20 17:27:00,
2013-02-20 09:32:00,39.4,35.8,29.04,ESE,112,2.3,2.4,87,0.00,CLR,,0.00,WeatherDisplay:10.37,2013-02-20 17:32:00,
2013-02-20 09:37:00,39.6,36.0,29.04,ESE,112,4.6,4.6,87,0.00,CLR,,0.00,WeatherDisplay:10.37,2013-02-20 17:37:00,
2013-02-20 09:42:00,39.6,35.7,29.03,SE,135,4.6,4.6,86,0.00,CLR,,0.00,WeatherDisplay:10.37,2013-02-20 17:42:00,
2013-02-20 09:47:00,39.6,35.7,29.03,ESE,112,4.6,4.6,86,0.00,CLR,,0.00,WeatherDisplay:10.37,2013-02-20 17:47:00,
2013-02-20 09:53:00,39.4,35.5,29.03,ESE,112,6.9,6.9,86,0.00,CLR,,0.00,WeatherDisplay:10.37,2013-02-20 17:53:00,
2013-02-20 09:58:00,39.6,35.7,29.03,ESE,112,4.6,4.6,86,0.00,CLR,,0.00,WeatherDisplay:10.37,2013-02-20 17:58:00,
2013-02-20 10:03:00,39.7,35.6,29.03,East,90,5.8,5.8,85,0.00,CLR,,0.00,WeatherDisplay:10.37,2013-02-20 18:03:00,
2013-02-20 10:08:00,39.9,35.8,29.04,ESE,112,5.8,5.8,85,0.00,CLR,,0.00,WeatherDisplay:10.37,2013-02-20 18:08:00,
2013-02-20 10:13:00,39.9,35.5,29.04,ESE,112,5.8,5.8,84,0.00,CLR,,0.00,WeatherDisplay:10.37,2013-02-20 18:13:00,
2013-02-20 10:18:00,39.9,35.5,29.04,East,90,4.6,4.6,84,0.00,CLR,,0.00,WeatherDisplay:10.37,2013-02-20 18:18:00,
2013-02-20 10:23:00,39.7,35.3,29.04,ESE,112,5.8,5.8,84,0.00,CLR,,0.00,WeatherDisplay:10.37,2013-02-20 18:23:00,
2013-02-20 10:28:00,39.6,35.1,29.04,SSE,158,4.6,4.6,84,0.00,CLR,,0.00,WeatherDisplay:10.37,2013-02-20 18:28:00,
2013-02-20 10:33:00,39.7,35.3,29.04,SE,135,4.6,4.6,84,0.00,CLR,,0.00,WeatherDisplay:10.37,2013-02-20 18:33:00,
2013-02-20 10:38:00,39.6,35.1,29.04,ESE,112,8.1,8.1,84,0.00,CLR,,0.00,WeatherDisplay:10.37,2013-02-20 18:38:00,
2013-02-20 10:43:00,39.2,35.1,29.04,ESE,112,6.9,6.9,85,0.00,CLR,,0.00,WeatherDisplay:10.37,2013-02-20 18:43:00,
2013-02-20 10:48:00,39.2,35.4,29.04,ESE,112,6.2,6.2,86,0.00,CLR,,0.00,WeatherDisplay:10.37,2013-02-20 18:48:00,
2013-02-20 10:53:00,39.0,35.2,29.04,East,90,4.6,4.6,86,0.00,CLR,,0.00,WeatherDisplay:10.37,2013-02-20 18:53:00,
2013-02-20 10:58:00,39.0,35.2,29.05,ESE,112,3.5,3.5,86,0.00,CLR,,0.00,WeatherDisplay:10.37,2013-02-20 18:58:00,
2013-02-20 11:03:00,39.2,35.4,29.05,ESE,112,4.6,4.6,86,0.00,CLR,,0.00,WeatherDisplay:10.37,2013-02-20 19:03:00,
2013-02-20 11:08:00,39.2,35.7,29.05,ESE,112,4.5,4.5,87,0.00,CLR,,0.00,WeatherDisplay:10.37,2013-02-20 19:08:00,
2013-02-20 11:13:00,39.2,35.7,29.05,SE,135,6.9,6.9,87,0.00,CLR,,0.00,WeatherDisplay:10.37,2013-02-20 19:13:00,
2013-02-20 11:18:00,39.2,35.7,29.04,ENE,68,5.8,5.8,87,0.00,CLR,,0.00,WeatherDisplay:10.37,2013-02-20 19:18:00,
2013-02-20 11:23:00,39.9,36.4,29.04,SE,135,4.6,4.6,87,0.00,CLR,,0.00,WeatherDisplay:10.37,2013-02-20 19:23:00,
2013-02-20 11:28:00,41.0,36.8,29.04,ESE,112,6.2,6.2,85,0.00,CLR,,0.00,WeatherDisplay:10.37,2013-02-20 19:28:00,
2013-02-20 11:33:00,41.4,36.9,29.03,ESE,112,5.8,5.8,84,0.00,CLR,,0.00,WeatherDisplay:10.37,2013-02-20 19:33:00,
2013-02-20 11:38:00,41.7,37.2,29.03,East,90,4.7,4.7,84,0.00,CLR,,0.00,WeatherDisplay:10.37,2013-02-20 19:38:00,
2013-02-20 11:43:00,42.1,37.0,29.03,ESE,112,5.8,5.8,82,0.00,CLR,,0.00,WeatherDisplay:10.37,2013-02-20 19:43:00,
2013-02-20 11:48:00,42.1,37.0,29.03,SE,135,5.8,5.8,82,0.00,CLR,,0.00,WeatherDisplay:10.37,2013-02-20 19:48:00,
2013-02-20 11:53:00,42.1,37.0,29.03,ESE,112,5.8,5.8,82,0.00,CLR,,0.00,WeatherDisplay:10.37,2013-02-20 19:53:00,
2013-02-20 11:58:00,42.3,37.2,29.03,East,90,5.8,5.8,82,0.00,CLR,,0.00,WeatherDisplay:10.37,2013-02-20 19:58:00,
2013-02-20 12:03:00,42.1,36.7,29.03,ESE,112,4.7,4.7,81,0.00,CLR,,0.00,WeatherDisplay:10.37,2013-02-20 20:03:00,
2013-02-20 12:08:00,41.7,36.6,29.03,SE,135,6.9,6.9,82,0.00,CLR,,0.00,WeatherDisplay:10.37,2013-02-20 20:08:00,
2013-02-20 12:13:00,41.2,36.1,29.03,East,90,6.2,6.2,82,0.00,CLR,,0.00,WeatherDisplay:10.37,2013-02-20 20:13:00,
2013-02-20 12:18:00,41.0,35.9,29.03,ESE,112,4.6,4.6,82,0.00,CLR,,0.00,WeatherDisplay:10.37,2013-02-20 20:18:00,
2013-02-20 12:23:00,41.2,36.4,29.03,ESE,112,5.8,5.8,83,0.00,CLR,,0.00,WeatherDisplay:10.37,2013-02-20 20:23:00,
2013-02-20 12:28:00,41.2,36.4,29.03,ESE,112,6.9,6.9,83,0.00,CLR,,0.00,WeatherDisplay:10.37,2013-02-20 20:28:00,
2013-02-20 12:33:00,41.4,36.3,29.02,East,90,6.9,6.9,82,0.00,CLR,,0.00,WeatherDisplay:10.37,2013-02-20 20:33:00,
2013-02-20 12:38:00,41.7,37.2,29.02,ESE,112,6.9,6.9,84,0.00,CLR,,0.00,WeatherDisplay:10.37,2013-02-20 20:38:00,
2013-02-20 12:43:00,42.1,37.6,29.02,SE,135,5.8,5.8,84,0.00,CLR,,0.00,WeatherDisplay:10.37,2013-02-20 20:43:00,
2013-02-20 12:48:00,42.3,37.2,29.02,ESE,112,6.9,6.9,82,0.00,CLR,,0.00,WeatherDisplay:10.37,2013-02-20 20:48:00,
2013-02-20 12:53:00,42.1,37.0,29.01,SE,135,5.4,5.4,82,0.00,CLR,,0.00,WeatherDisplay:10.37,2013-02-20 20:53:00,
2013-02-20 12:58:00,42.4,37.6,29.01,SE,135,5.8,5.8,83,0.00,CLR,,0.00,WeatherDisplay:10.37,2013-02-20 20:58:00,
2013-02-20 13:03:00,42.6,37.2,29.01,ESE,112,9.4,9.4,81,0.00,CLR,,0.00,WeatherDisplay:10.37,2013-02-20 21:03:00,
2013-02-20 13:08:00,42.4,37.3,29.00,NNE,22,5.8,5.8,82,0.00,CLR,,0.00,WeatherDisplay:10.37,2013-02-20 21:08:00,
2013-02-20 13:13:00,41.9,37.1,29.00,ESE,112,5.8,5.8,83,0.00,CLR,,0.00,WeatherDisplay:10.37,2013-02-20 21:13:00,
2013-02-20 13:18:00,41.4,36.3,29.00,East,90,6.9,6.9,82,0.00,CLR,,0.00,WeatherDisplay:10.37,2013-02-20 21:18:00,
2013-02-20 13:23:00,41.4,36.6,29.00,ESE,112,5.8,5.8,83,0.00,CLR,,0.00,WeatherDisplay:10.37,2013-02-20 21:23:00,
2013-02-20 13:28:00,41.5,37.1,29.00,ENE,68,3.6,3.6,84,0.00,CLR,,0.00,WeatherDisplay:10.37,2013-02-20 21:28:00,
2013-02-20 13:33:00,41.7,36.9,29.00,ESE,112,5.8,6.9,83,0.00,CLR,,0.00,WeatherDisplay:10.37,2013-02-20 21:33:00,
2013-02-20 13:38:00,41.9,36.8,28.99,ESE,112,6.9,6.9,82,0.00,CLR,,0.00,WeatherDisplay:10.37,2013-02-20 21:38:00,
2013-02-20 13:43:00,42.1,37.3,28.99,SE,135,4.7,4.7,83,0.00,CLR,,0.00,WeatherDisplay:10.37,2013-02-20 21:43:00,
2013-02-20 13:48:00,42.1,37.0,28.99,SE,135,4.6,4.6,82,0.00,CLR,,0.00,WeatherDisplay:10.37,2013-02-20 21:48:00,
2013-02-20 13:53:00,41.9,36.5,28.99,East,90,6.9,6.9,81,0.00,CLR,,0.00,WeatherDisplay:10.37,2013-02-20 21:53:00,
2013-02-20 13:58:00,42.1,36.7,28.99,East,90,5.8,5.8,81,0.00,CLR,,0.00,WeatherDisplay:10.37,2013-02-20 21:58:00,
2013-02-20 14:03:00,42.3,36.8,28.99,East,90,5.8,6.2,81,0.00,CLR,,0.00,WeatherDisplay:10.37,2013-02-20 22:03:00,
2013-02-20 14:08:00,42.1,36.4,28.98,ESE,112,6.9,6.9,80,0.00,CLR,,0.00,WeatherDisplay:10.37,2013-02-20 22:08:00,
2013-02-20 14:13:00,42.1,36.4,28.98,ESE,112,8.1,8.1,80,0.00,CLR,,0.00,WeatherDisplay:10.37,2013-02-20 22:13:00,
2013-02-20 14:18:00,42.1,36.4,28.97,ESE,112,8.5,8.5,80,0.00,CLR,,0.00,WeatherDisplay:10.37,2013-02-20 22:18:00,
2013-02-20 14:23:00,42.1,36.4,28.97,ESE,112,6.9,6.9,80,0.00,CLR,,0.00,WeatherDisplay:10.37,2013-02-20 22:23:00,
2013-02-20 14:28:00,42.1,36.4,28.97,ESE,112,5.8,5.8,80,0.00,CLR,,0.00,WeatherDisplay:10.37,2013-02-20 22:28:00,
2013-02-20 14:33:00,42.3,36.8,28.97,East,90,6.7,6.7,81,0.00,CLR,,0.00,WeatherDisplay:10.37,2013-02-20 22:33:00,
2013-02-20 14:38:00,42.1,36.7,28.97,SE,135,6.2,6.2,81,0.00,CLR,,0.00,WeatherDisplay:10.37,2013-02-20 22:38:00,
2013-02-20 14:44:00,42.1,36.7,28.97,SE,135,5.8,5.8,81,0.00,CLR,,0.00,WeatherDisplay:10.37,2013-02-20 22:44:00,
2013-02-20 14:49:00,41.9,36.5,28.97,East,90,4.6,4.6,81,0.00,CLR,,0.00,WeatherDisplay:10.37,2013-02-20 22:49:00,
2013-02-20 14:54:00,41.7,36.9,28.97,ESE,112,4.6,4.6,83,0.00,CLR,,0.00,WeatherDisplay:10.37,2013-02-20 22:54:00,
2013-02-20 14:59:00,41.9,37.4,28.97,ESE,112,4.7,4.7,84,0.00,CLR,,0.00,WeatherDisplay:10.37,2013-02-20 22:59:00,
2013-02-20 15:04:00,41.9,37.4,28.97,ESE,112,4.6,4.6,84,0.00,CLR,,0.00,WeatherDisplay:10.37,2013-02-20 23:04:00,
2013-02-20 15:09:00,41.7,36.9,28.97,ESE,112,6.9,6.9,83,0.00,CLR,,0.00,WeatherDisplay:10.37,2013-02-20 23:09:00,
2013-02-20 15:14:00,41.5,36.8,28.97,ESE,112,9.2,9.2,83,0.00,CLR,,0.00,WeatherDisplay:10.37,2013-02-20 23:14:00,
2013-02-20 15:19:00,41.4,36.9,28.97,ESE,112,6.2,6.2,84,0.00,CLR,,0.00,WeatherDisplay:10.37,2013-02-20 23:19:00,
2013-02-20 15:24:00,41.2,36.7,28.97,ESE,112,5.8,5.8,84,0.00,CLR,,0.00,WeatherDisplay:10.37,2013-02-20 23:24:00,
2013-02-20 15:29:00,41.0,36.5,28.97,SE,135,6.2,6.2,84,0.01,RA,,0.01,WeatherDisplay:10.37,2013-02-20 23:29:00,
2013-02-20 15:34:00,40.8,36.7,28.97,ESE,112,4.9,4.9,85,0.01,RA,,0.01,WeatherDisplay:10.37,2013-02-20 23:34:00,
2013-02-20 15:39:00,40.6,36.8,28.97,SE,135,4.6,4.6,86,0.01,,,0.01,WeatherDisplay:10.37,2013-02-20 23:39:00,
2013-02-20 15:44:00,40.5,36.6,28.97,SE,135,4.6,4.6,86,0.02,RA,,0.02,WeatherDisplay:10.37,2013-02-20 23:44:00,
2013-02-20 15:48:00,40.3,36.7,28.97,SE,135,5.8,5.8,87,0.03,RA,,0.03,WeatherDisplay:10.37,2013-02-20 23:48:00,
2013-02-20 15:53:00,40.3,36.7,28.97,ESE,112,4.6,4.6,87,0.03,RA,,0.03,WeatherDisplay:10.37,2013-02-20 23:53:00,
2013-02-20 15:58:00,40.3,37.0,28.97,ESE,112,5.8,5.8,88,0.03,CLR,,0.03,WeatherDisplay:10.37,2013-02-20 23:58:00,
2013-02-20 16:03:00,40.3,36.7,28.97,ESE,112,2.3,2.3,87,0.03,CLR,,0.03,WeatherDisplay:10.37,2013-02-21 00:03:00,
2013-02-20 16:08:00,40.5,36.9,28.97,ESE,112,2.3,2.3,87,0.03,CLR,,0.03,WeatherDisplay:10.37,2013-02-21 00:08:00,
2013-02-20 16:13:00,40.3,36.7,28.97,ESE,112,4.6,4.6,87,0.04,RA,,0.04,WeatherDisplay:10.37,2013-02-21 00:13:00,
2013-02-20 16:18:00,40.3,36.7,28.97,SE,135,2.3,2.3,87,0.04,RA,,0.04,WeatherDisplay:10.37,2013-02-21 00:18:00,
2013-02-20 16:23:00,40.3,37.0,28.97,ESE,112,1.4,1.4,88,0.04,,,0.04,WeatherDisplay:10.37,2013-02-21 00:23:00,
2013-02-20 16:28:00,40.1,36.8,28.97,East,90,2.3,2.3,88,0.04,RA,,0.05,WeatherDisplay:10.37,2013-02-21 00:28:00,
2013-02-20 16:33:00,39.9,36.4,28.97,ESE,112,2.4,2.4,87,0.04,RA,,0.05,WeatherDisplay:10.37,2013-02-21 00:33:00,
2013-02-20 16:38:00,39.9,36.4,28.97,ESE,112,2.6,2.6,87,0.04,CLR,,0.05,WeatherDisplay:10.37,2013-02-21 00:38:00,
2013-02-20 16:43:00,39.9,36.7,28.97,SE,135,4.6,4.6,88,0.03,CLR,,0.05,WeatherDisplay:10.37,2013-02-21 00:43:00,
2013-02-20 16:48:00,39.9,36.7,28.97,SE,135,2.9,2.9,88,0.03,RA,,0.06,WeatherDisplay:10.37,2013-02-21 00:48:00,
2013-02-20 16:53:00,39.9,36.7,28.97,East,90,2.3,2.3,88,0.03,RA,,0.06,WeatherDisplay:10.37,2013-02-21 00:53:00,
2013-02-20 16:58:00,39.7,36.5,28.97,ESE,112,2.3,2.3,88,0.04,RA,,0.07,WeatherDisplay:10.37,2013-02-21 00:58:00,
2013-02-20 17:03:00,39.7,36.8,28.97,ESE,112,4.6,4.6,89,0.04,RA,,0.07,WeatherDisplay:10.37,2013-02-21 01:03:00,
2013-02-20 17:08:00,39.7,37.0,28.97,East,90,3.5,3.5,90,0.04,CLR,,0.07,WeatherDisplay:10.37,2013-02-21 01:08:00,
2013-02-20 17:13:00,39.6,36.6,28.97,ESE,112,3.8,3.8,89,0.03,CLR,,0.07,WeatherDisplay:10.37,2013-02-21 01:13:00,
2013-02-20 17:18:00,39.6,36.6,28.97,ESE,112,3.5,3.5,89,0.03,CLR,,0.07,WeatherDisplay:10.37,2013-02-21 01:18:00,
2013-02-20 17:23:00,39.6,36.6,28.97,ESE,112,4.6,4.6,89,0.04,RA,,0.08,WeatherDisplay:10.37,2013-02-21 01:23:00,
2013-02-20 17:28:00,39.6,36.6,28.97,ESE,112,3.5,3.5,89,0.04,RA,,0.09,WeatherDisplay:10.37,2013-02-21 01:28:00,
2013-02-20 17:33:00,39.6,36.9,28.97,ESE,112,4.6,4.6,90,0.04,RA,,0.09,WeatherDisplay:10.37,2013-02-21 01:33:00,
2013-02-20 17:38:00,39.6,36.9,28.97,East,90,4.6,4.6,90,0.06,RA,,0.11,WeatherDisplay:10.37,2013-02-21 01:38:00,
2013-02-20 17:43:00,39.4,36.4,28.97,ESE,112,3.5,3.5,89,0.07,RA,,0.12,WeatherDisplay:10.37,2013-02-21 01:43:00,
2013-02-20 17:48:00,39.2,36.2,28.97,SE,135,4.6,4.6,89,0.08,RA,,0.15,WeatherDisplay:10.37,2013-02-21 01:48:00,
2013-02-20 17:53:00,39.2,36.5,28.97,ESE,112,3.5,3.5,90,0.10,RA,,0.17,WeatherDisplay:10.37,2013-02-21 01:53:00,
2013-02-20 17:58:00,39.2,36.5,28.97,ESE,112,8.1,8.1,90,0.10,RA,,0.17,WeatherDisplay:10.37,2013-02-21 01:58:00,
2013-02-20 18:03:00,39.2,36.8,28.97,ESE,112,5.8,5.8,91,0.10,RA,,0.17,WeatherDisplay:10.37,2013-02-21 02:03:00,
2013-02-20 18:08:00,39.0,36.6,28.97,East,90,6.9,6.9,91,0.10,CLR,,0.17,WeatherDisplay:10.37,2013-02-21 02:08:00,
2013-02-20 18:13:00,39.0,36.6,28.97,East,90,8.1,8.1,91,0.10,CLR,,0.17,WeatherDisplay:10.37,2013-02-21 02:13:00,
2013-02-20 18:18:00,38.8,36.4,28.97,ENE,68,4.6,4.6,91,0.10,CLR,,0.17,WeatherDisplay:10.37,2013-02-21 02:18:00,
2013-02-20 18:23:00,38.8,36.2,28.97,East,90,4.7,4.7,90,0.09,CLR,,0.17,WeatherDisplay:10.37,2013-02-21 02:23:00,
2013-02-20 18:28:00,38.8,36.4,28.97,ESE,112,5.8,5.8,91,0.08,CLR,,0.17,WeatherDisplay:10.37,2013-02-21 02:28:00,
2013-02-20 18:33:00,38.7,36.3,28.97,East,90,5.8,5.8,91,0.08,CLR,,0.17,WeatherDisplay:10.37,2013-02-21 02:33:00,
2013-02-20 18:38:00,38.8,36.7,28.97,East,90,6.0,6.0,92,0.07,CLR,,0.17,WeatherDisplay:10.37,2013-02-21 02:38:00,
2013-02-20 18:43:00,38.8,36.7,28.97,East,90,6.9,6.9,92,0.05,CLR,,0.17,WeatherDisplay:10.37,2013-02-21 02:43:00,
2013-02-20 18:48:00,38.8,36.7,28.98,ENE,68,4.6,4.6,92,0.04,CLR,,0.17,WeatherDisplay:10.37,2013-02-21 02:48:00,
2013-02-20 18:53:00,38.8,37.0,28.98,East,90,5.8,5.8,93,0.02,CLR,,0.17,WeatherDisplay:10.37,2013-02-21 02:53:00,
2013-02-20 18:58:00,39.0,37.2,28.98,East,90,5.8,5.8,93,0.00,CLR,,0.17,WeatherDisplay:10.37,2013-02-21 02:58:00,
2013-02-20 19:03:00,39.0,37.2,28.98,East,90,4.6,4.6,93,0.00,CLR,,0.17,WeatherDisplay:10.37,2013-02-21 03:03:00,
2013-02-20 19:08:00,39.0,37.2,28.98,ESE,112,5.8,5.8,93,0.00,CLR,,0.17,WeatherDisplay:10.37,2013-02-21 03:08:00,
2013-02-20 19:13:00,39.0,37.2,28.98,ESE,112,6.7,6.7,93,0.00,CLR,,0.17,WeatherDisplay:10.37,2013-02-21 03:13:00,
2013-02-20 19:18:00,39.0,37.2,28.98,ESE,112,5.8,5.8,93,0.00,CLR,,0.17,WeatherDisplay:10.37,2013-02-21 03:18:00,
2013-02-20 19:23:00,39.0,37.2,28.98,ESE,112,8.1,8.1,93,0.00,CLR,,0.17,WeatherDisplay:10.37,2013-02-21 03:23:00,
2013-02-20 19:28:00,38.8,37.0,28.98,ESE,112,6.9,6.9,93,0.00,CLR,,0.17,WeatherDisplay:10.37,2013-02-21 03:28:00,
2013-02-20 19:33:00,38.8,37.0,28.98,ESE,112,4.6,4.6,93,0.00,CLR,,0.17,WeatherDisplay:10.37,2013-02-21 03:33:00,
2013-02-20 19:38:00,38.8,36.7,28.98,East,90,5.8,5.8,92,0.00,CLR,,0.17,WeatherDisplay:10.37,2013-02-21 03:38:00,
2013-02-20 19:43:00,38.8,36.7,28.98,ESE,112,6.0,6.0,92,0.00,CLR,,0.17,WeatherDisplay:10.37,2013-02-21 03:43:00,
2013-02-20 19:48:00,38.8,36.7,28.99,ENE,68,4.0,4.0,92,0.00,CLR,,0.17,WeatherDisplay:10.37,2013-02-21 03:48:00,
2013-02-20 19:53:00,38.8,36.7,28.99,East,90,5.8,5.8,92,0.00,CLR,,0.17,WeatherDisplay:10.37,2013-02-21 03:53:00,
2013-02-20 19:58:00,38.8,36.7,28.99,ESE,112,6.9,6.9,92,0.00,CLR,,0.17,WeatherDisplay:10.37,2013-02-21 03:58:00,
2013-02-20 20:03:00,38.8,36.7,28.99,SE,135,5.8,5.8,92,0.00,CLR,,0.17,WeatherDisplay:10.37,2013-02-21 04:03:00,
2013-02-20 20:08:00,38.8,36.7,28.98,ESE,112,5.2,5.2,92,0.00,CLR,,0.17,WeatherDisplay:10.37,2013-02-21 04:08:00,
2013-02-20 20:13:00,38.7,36.5,28.98,SSE,158,4.0,4.0,92,0.00,CLR,,0.17,WeatherDisplay:10.37,2013-02-21 04:13:00,
2013-02-20 20:22:00,38.7,36.5,28.98,ESE,112,6.2,6.2,92,0.00,CLR,,0.17,WeatherDisplay:10.37,2013-02-21 04:22:00,
2013-02-20 20:27:00,38.7,36.8,28.99,SE,135,4.6,4.6,93,0.00,CLR,,0.17,WeatherDisplay:10.37,2013-02-21 04:27:00,
2013-02-20 20:32:00,38.7,36.8,28.99,ESE,112,5.8,5.8,93,0.00,CLR,,0.17,WeatherDisplay:10.37,2013-02-21 04:32:00,
2013-02-20 20:37:00,38.7,36.8,28.99,ESE,112,5.8,5.9,93,0.00,CLR,,0.17,WeatherDisplay:10.37,2013-02-21 04:37:00,
2013-02-20 20:42:00,38.7,36.8,28.99,SE,135,4.6,4.6,93,0.00,CLR,,0.17,WeatherDisplay:10.37,2013-02-21 04:42:00,
2013-02-20 20:47:00,38.5,36.6,29.00,SE,135,4.6,4.6,93,0.00,CLR,,0.17,WeatherDisplay:10.37,2013-02-21 04:47:00,
2013-02-20 20:52:00,38.5,36.6,29.00,SE,135,4.7,4.7,93,0.00,CLR,,0.17,WeatherDisplay:10.37,2013-02-21 04:52:00,
2013-02-20 20:57:00,38.5,36.6,29.00,SE,135,5.8,5.8,93,0.00,CLR,,0.17,WeatherDisplay:10.37,2013-02-21 04:57:00,
2013-02-20 21:00:00,38.5,36.6,29.00,ESE,112,5.8,5.8,93,0.00,CLR,,0.17,WeatherDisplay:10.37,2013-02-21 05:00:00,
2013-02-20 21:05:00,38.5,36.6,29.00,ESE,112,5.4,5.4,93,0.00,CLR,,0.17,WeatherDisplay:10.37,2013-02-21 05:05:00,
2013-02-20 21:10:00,38.5,36.6,29.00,SE,135,3.5,3.6,93,0.00,CLR,,0.17,WeatherDisplay:10.37,2013-02-21 05:10:00,
2013-02-20 21:15:00,38.3,36.5,29.00,ESE,112,3.8,3.8,93,0.00,CLR,,0.17,WeatherDisplay:10.37,2013-02-21 05:15:00,
2013-02-20 21:20:00,38.3,36.5,29.00,SSE,158,5.8,5.8,93,0.00,CLR,,0.17,WeatherDisplay:10.37,2013-02-21 05:20:00,
2013-02-20 21:25:00,38.3,36.5,29.00,SE,135,6.2,6.2,93,0.00,CLR,,0.17,WeatherDisplay:10.37,2013-02-21 05:25:00,
2013-02-20 21:30:00,38.1,36.3,29.00,SE,135,4.6,4.6,93,0.00,CLR,,0.17,WeatherDisplay:10.37,2013-02-21 05:30:00,
2013-02-20 21:35:00,38.1,36.3,29.00,SE,135,4.6,4.6,93,0.00,CLR,,0.17,WeatherDisplay:10.37,2013-02-21 05:35:00,
2013-02-20 21:40:00,38.1,36.3,29.00,SSE,158,4.7,4.7,93,0.00,CLR,,0.17,WeatherDisplay:10.37,2013-02-21 05:40:00,
2013-02-20 21:45:00,38.1,36.3,29.00,ESE,112,2.3,2.3,93,0.00,CLR,,0.17,WeatherDisplay:10.37,2013-02-21 05:45:00,
2013-02-20 21:50:00,38.1,36.3,29.00,SE,135,5.8,5.8,93,0.00,CLR,,0.17,WeatherDisplay:10.37,2013-02-21 05:50:00,
2013-02-20 21:56:00,37.9,36.1,29.00,ESE,112,4.6,4.6,93,0.00,CLR,,0.17,WeatherDisplay:10.37,2013-02-21 05:56:00,
2013-02-20 22:01:00,37.9,36.1,29.00,East,90,5.4,5.4,93,0.00,CLR,,0.17,WeatherDisplay:10.37,2013-02-21 06:01:00,
2013-02-20 22:06:00,37.9,36.1,29.00,ESE,112,6.4,6.4,93,0.00,CLR,,0.17,WeatherDisplay:10.37,2013-02-21 06:06:00,
2013-02-20 22:11:00,37.8,35.9,29.00,SSE,158,4.6,4.6,93,0.00,CLR,,0.17,WeatherDisplay:10.37,2013-02-21 06:11:00,
2013-02-20 22:16:00,37.8,35.9,29.01,ESE,112,4.6,4.6,93,0.00,CLR,,0.17,WeatherDisplay:10.37,2013-02-21 06:16:00,
2013-02-20 22:21:00,37.8,35.9,29.01,SE,135,3.5,3.5,93,0.00,CLR,,0.17,WeatherDisplay:10.37,2013-02-21 06:21:00,
2013-02-20 22:26:00,37.8,35.9,29.01,SE,135,6.9,6.9,93,0.00,CLR,,0.17,WeatherDisplay:10.37,2013-02-21 06:26:00,
2013-02-20 22:31:00,37.8,35.9,29.01,SE,135,4.6,4.6,93,0.00,CLR,,0.17,WeatherDisplay:10.37,2013-02-21 06:31:00,
2013-02-20 22:36:00,37.8,35.9,29.02,ESE,112,4.6,4.6,93,0.00,CLR,,0.17,WeatherDisplay:10.37,2013-02-21 06:36:00,
2013-02-20 22:41:00,37.6,35.7,29.01,SE,135,4.0,4.0,93,0.00,CLR,,0.17,WeatherDisplay:10.37,2013-02-21 06:41:00,
2013-02-20 22:46:00,37.6,35.7,29.01,ESE,112,4.6,4.6,93,0.00,CLR,,0.17,WeatherDisplay:10.37,2013-02-21 06:46:00,
2013-02-20 22:51:00,37.6,36.0,29.02,SE,135,4.6,4.6,94,0.00,CLR,,0.17,WeatherDisplay:10.37,2013-02-21 06:51:00,
2013-02-20 22:56:00,37.6,36.0,29.02,SE,135,5.8,5.8,94,0.00,CLR,,0.17,WeatherDisplay:10.37,2013-02-21 06:56:00,
2013-02-20 23:01:00,37.6,36.0,29.02,SE,135,6.9,6.9,94,0.00,CLR,,0.17,WeatherDisplay:10.37,2013-02-21 07:01:00,
2013-02-20 23:06:00,37.4,35.8,29.02,ESE,112,5.8,5.8,94,0.00,CLR,,0.17,WeatherDisplay:10.37,2013-02-21 07:06:00,
2013-02-20 23:11:00,37.4,35.6,29.02,ESE,112,4.6,4.6,93,0.01,RA,,0.19,WeatherDisplay:10.37,2013-02-21 07:11:00,
2013-02-20 23:16:00,37.4,35.8,29.01,East,90,5.8,5.8,94,0.01,RA,,0.19,WeatherDisplay:10.37,2013-02-21 07:16:00,
2013-02-20 23:21:00,37.4,35.8,29.02,ESE,112,5.8,5.8,94,0.01,,,0.19,WeatherDisplay:10.37,2013-02-21 07:21:00,
2013-02-20 23:26:00,37.4,35.8,29.02,SE,135,4.6,4.6,94,0.01,CLR,,0.19,WeatherDisplay:10.37,2013-02-21 07:26:00,
2013-02-20 23:31:00,37.4,35.8,29.02,ESE,112,4.6,4.6,94,0.01,CLR,,0.19,WeatherDisplay:10.37,2013-02-21 07:31:00,
2013-02-20 23:36:00,37.4,35.8,29.02,SE,135,5.4,5.4,94,0.01,CLR,,0.19,WeatherDisplay:10.37,2013-02-21 07:36:00,
2013-02-20 23:41:00,37.4,35.8,29.02,ESE,112,4.6,4.6,94,0.01,CLR,,0.19,WeatherDisplay:10.37,2013-02-21 07:41:00,
2013-02-20 23:46:00,37.4,35.8,29.02,ESE,112,5.8,5.8,94,0.01,CLR,,0.19,WeatherDisplay:10.37,2013-02-21 07:46:00,
2013-02-20 23:51:00,37.2,35.7,29.02,ESE,112,4.6,4.6,94,0.01,CLR,,0.19,WeatherDisplay:10.37,2013-02-21 07:51:00,
2013-02-20 23:56:00,37.2,35.7,29.02,SSE,158,6.9,6.9,94,0.01,CLR,,0.19,WeatherDisplay:10.37,2013-02-21 07:56:00,